sensor_id;sensor_type;location;lat;lon;timestamp;P1;durP1;ratioP1;P2;durP2;ratioP2
1122;SDS011;548;48.778;9.252;2023-02-07T10:12:27;17.47;;;16.27;;
1122;SDS011;548;48.778;9.252;2023-02-07T10:15:16;18.13;;;16.83;;
1122;SDS011;548;48.778;9.252;2023-02-07T10:17:58;16.93;;;15.83;;
1122;SDS011;548;48.778;9.252;2023-02-07T10:20:43;17.73;;;16.30;;
1122;SDS011;548;48.778;9.252;2023-02-07T10:23:20;15.67;;;14.67;;
1122;SDS011;548;48.778;9.252;2023-02-07T10:25:59;18.67;;;17.17;;
1122;SDS011;548;48.778;9.252;2023-02-07T10:31:37;17.80;;;16.33;;
1122;SDS011;548;48.778;9.252;2023-02-07T10:34:09;19.37;;;18.07;;
1122;SDS011;548;48.778;9.252;2023-02-07T10:36:40;19.43;;;17.90;;
1122;SDS011;548;48.778;9.252;2023-02-07T10:39:12;18.23;;;16.50;;
1122;SDS011;548;48.778;9.252;2023-02-07T10:41:43;18.27;;;16.97;;
1122;SDS011;548;48.778;9.252;2023-02-07T10:44:11;17.53;;;16.40;;
1122;SDS011;548;48.778;9.252;2023-02-07T10:46:41;19.50;;;17.80;;
1122;SDS011;548;48.778;9.252;2023-02-07T10:49:12;17.57;;;16.40;;
1122;SDS011;548;48.778;9.252;2023-02-07T10:51:45;18.30;;;17.00;;
1122;SDS011;548;48.778;9.252;2023-02-07T10:54:12;17.30;;;16.10;;
1122;SDS011;548;48.778;9.252;2023-02-07T10:56:41;17.67;;;16.50;;
1122;SDS011;548;48.778;9.252;2023-02-07T11:02:01;20.27;;;19.03;;
1122;SDS011;548;48.778;9.252;2023-02-07T11:04:49;18.10;;;16.80;;
1122;SDS011;548;48.778;9.252;2023-02-07T11:07:16;18.30;;;17.03;;
1122;SDS011;548;48.778;9.252;2023-02-07T11:09:42;18.37;;;17.13;;
1122;SDS011;548;48.778;9.252;2023-02-07T11:12:12;18.87;;;17.47;;
1122;SDS011;548;48.778;9.252;2023-02-07T11:14:41;18.53;;;17.30;;
1122;SDS011;548;48.778;9.252;2023-02-07T11:17:27;17.23;;;16.13;;
1122;SDS011;548;48.778;9.252;2023-02-07T11:19:54;18.37;;;17.07;;
1122;SDS011;548;48.778;9.252;2023-02-07T11:22:22;18.57;;;17.17;;
1122;SDS011;548;48.778;9.252;2023-02-07T11:24:51;18.53;;;17.20;;
1122;SDS011;548;48.778;9.252;2023-02-07T11:27:24;19.07;;;17.70;;
1122;SDS011;548;48.778;9.252;2023-02-07T11:29:52;18.33;;;16.83;;
1122;SDS011;548;48.778;9.252;2023-02-07T11:32:20;17.97;;;16.77;;
1122;SDS011;548;48.778;9.252;2023-02-07T11:34:50;19.40;;;17.90;;
1122;SDS011;548;48.778;9.252;2023-02-07T11:37:22;17.17;;;16.17;;
1122;SDS011;548;48.778;9.252;2023-02-07T11:39:51;19.43;;;17.93;;
1122;SDS011;548;48.778;9.252;2023-02-07T11:42:20;18.00;;;16.50;;
1122;SDS011;548;48.778;9.252;2023-02-07T11:44:49;17.30;;;16.20;;
1122;SDS011;548;48.778;9.252;2023-02-07T11:47:16;17.47;;;16.37;;
1122;SDS011;548;48.778;9.252;2023-02-07T11:49:46;18.80;;;17.53;;
1122;SDS011;548;48.778;9.252;2023-02-07T11:52:16;17.90;;;16.70;;
1122;SDS011;548;48.778;9.252;2023-02-07T11:54:47;16.30;;;15.30;;
1122;SDS011;548;48.778;9.252;2023-02-07T11:57:17;18.33;;;17.23;;
1122;SDS011;548;48.778;9.252;2023-02-07T11:59:47;15.90;;;14.83;;
1122;SDS011;548;48.778;9.252;2023-02-07T12:02:18;16.10;;;14.80;;
1122;SDS011;548;48.778;9.252;2023-02-07T12:04:49;17.60;;;16.60;;
1122;SDS011;548;48.778;9.252;2023-02-07T12:07:19;18.87;;;17.33;;
1122;SDS011;548;48.778;9.252;2023-02-07T12:09:50;16.70;;;15.73;;
1122;SDS011;548;48.778;9.252;2023-02-07T12:12:20;16.13;;;15.23;;
1122;SDS011;548;48.778;9.252;2023-02-07T12:14:53;17.20;;;16.00;;
1122;SDS011;548;48.778;9.252;2023-02-07T12:17:26;17.53;;;16.43;;
1122;SDS011;548;48.778;9.252;2023-02-07T12:20:00;18.40;;;17.30;;
1122;SDS011;548;48.778;9.252;2023-02-07T12:22:34;16.87;;;15.70;;
1122;SDS011;548;48.778;9.252;2023-02-07T12:25:12;18.13;;;17.07;;
1122;SDS011;548;48.778;9.252;2023-02-07T12:27:43;17.20;;;16.20;;
1122;SDS011;548;48.778;9.252;2023-02-07T12:30:13;18.83;;;17.50;;
1122;SDS011;548;48.778;9.252;2023-02-07T12:32:46;17.43;;;16.43;;
1122;SDS011;548;48.778;9.252;2023-02-07T12:35:20;17.03;;;15.93;;
1122;SDS011;548;48.778;9.252;2023-02-07T12:37:52;17.43;;;16.43;;
1122;SDS011;548;48.778;9.252;2023-02-07T12:40:27;18.13;;;16.90;;
1122;SDS011;548;48.778;9.252;2023-02-07T12:42:58;16.57;;;15.47;;
1122;SDS011;548;48.778;9.252;2023-02-07T12:45:36;18.60;;;17.40;;
1122;SDS011;548;48.778;9.252;2023-02-07T12:48:20;17.20;;;16.10;;
1122;SDS011;548;48.778;9.252;2023-02-07T12:51:00;17.13;;;16.03;;
1122;SDS011;548;48.778;9.252;2023-02-07T12:53:44;17.97;;;16.53;;
1122;SDS011;548;48.778;9.252;2023-02-07T12:56:33;17.90;;;16.67;;
1122;SDS011;548;48.778;9.252;2023-02-07T12:59:10;17.30;;;16.30;;
1122;SDS011;548;48.778;9.252;2023-02-07T13:01:43;15.50;;;14.70;;
1122;SDS011;548;48.778;9.252;2023-02-07T13:07:24;16.77;;;15.67;;
1122;SDS011;548;48.778;9.252;2023-02-07T13:10:03;16.87;;;15.97;;
1122;SDS011;548;48.778;9.252;2023-02-07T13:12:39;16.07;;;15.10;;
1122;SDS011;548;48.778;9.252;2023-02-07T13:15:13;18.73;;;17.53;;
1122;SDS011;548;48.778;9.252;2023-02-07T13:17:48;16.87;;;15.67;;
1122;SDS011;548;48.778;9.252;2023-02-07T13:20:41;16.73;;;15.43;;
1122;SDS011;548;48.778;9.252;2023-02-07T13:23:18;17.27;;;15.87;;
1122;SDS011;548;48.778;9.252;2023-02-07T13:25:48;16.50;;;15.47;;
1122;SDS011;548;48.778;9.252;2023-02-07T13:28:19;16.67;;;15.40;;
1122;SDS011;548;48.778;9.252;2023-02-07T13:30:50;15.17;;;14.20;;
1122;SDS011;548;48.778;9.252;2023-02-07T13:33:23;15.93;;;14.73;;
1122;SDS011;548;48.778;9.252;2023-02-07T13:35:55;16.20;;;15.10;;
1122;SDS011;548;48.778;9.252;2023-02-07T13:38:33;18.10;;;16.80;;
1122;SDS011;548;48.778;9.252;2023-02-07T13:41:07;17.07;;;15.77;;
1122;SDS011;548;48.778;9.252;2023-02-07T13:43:45;16.13;;;14.83;;
1122;SDS011;548;48.778;9.252;2023-02-07T13:46:24;15.43;;;14.33;;
1122;SDS011;548;48.778;9.252;2023-02-07T13:49:03;15.53;;;14.53;;
1122;SDS011;548;48.778;9.252;2023-02-07T13:51:38;13.93;;;12.87;;
1122;SDS011;548;48.778;9.252;2023-02-07T13:54:15;15.40;;;14.20;;
1122;SDS011;548;48.778;9.252;2023-02-07T13:56:54;14.77;;;13.77;;
1122;SDS011;548;48.778;9.252;2023-02-07T13:59:40;15.30;;;14.30;;
1122;SDS011;548;48.778;9.252;2023-02-07T14:02:13;15.87;;;14.67;;
1122;SDS011;548;48.778;9.252;2023-02-07T14:04:46;14.97;;;14.07;;
1122;SDS011;548;48.778;9.252;2023-02-07T14:07:17;16.73;;;15.10;;
1122;SDS011;548;48.778;9.252;2023-02-07T14:09:51;16.10;;;14.90;;
1122;SDS011;548;48.778;9.252;2023-02-07T14:12:20;17.33;;;16.10;;
1122;SDS011;548;48.778;9.252;2023-02-07T14:14:50;17.30;;;16.10;;
1122;SDS011;548;48.778;9.252;2023-02-07T14:23:14;16.60;;;15.30;;
1122;SDS011;548;48.778;9.252;2023-02-07T14:25:45;16.90;;;15.20;;
1122;SDS011;548;48.778;9.252;2023-02-07T14:28:16;15.00;;;14.10;;
1122;SDS011;548;48.778;9.252;2023-02-07T14:30:57;14.70;;;13.60;;
1122;SDS011;548;48.778;9.252;2023-02-07T14:33:30;14.63;;;13.73;;
1122;SDS011;548;48.778;9.252;2023-02-07T14:38:58;14.70;;;13.60;;
1122;SDS011;548;48.778;9.252;2023-02-07T14:41:29;14.10;;;13.10;;
1122;SDS011;548;48.778;9.252;2023-02-07T14:43:58;15.27;;;14.07;;
1122;SDS011;548;48.778;9.252;2023-02-07T14:46:28;13.93;;;13.03;;
1122;SDS011;548;48.778;9.252;2023-02-07T14:48:59;14.63;;;13.50;;
1122;SDS011;548;48.778;9.252;2023-02-07T14:51:31;15.40;;;14.20;;
1122;SDS011;548;48.778;9.252;2023-02-07T14:54:06;13.23;;;12.23;;
1122;SDS011;548;48.778;9.252;2023-02-07T14:56:43;14.13;;;13.13;;
1122;SDS011;548;48.778;9.252;2023-02-07T14:59:17;14.50;;;13.50;;
1122;SDS011;548;48.778;9.252;2023-02-07T15:01:52;13.37;;;12.57;;
1122;SDS011;548;48.778;9.252;2023-02-07T15:04:19;15.00;;;13.90;;
1122;SDS011;548;48.778;9.252;2023-02-07T15:06:46;13.90;;;12.90;;
1122;SDS011;548;48.778;9.252;2023-02-07T15:09:17;14.00;;;13.00;;
1122;SDS011;548;48.778;9.252;2023-02-07T15:11:48;14.57;;;13.47;;
1122;SDS011;548;48.778;9.252;2023-02-07T15:14:18;13.70;;;12.77;;
1122;SDS011;548;48.778;9.252;2023-02-07T15:16:48;14.97;;;13.57;;
1122;SDS011;548;48.778;9.252;2023-02-07T15:19:18;15.30;;;14.00;;
1122;SDS011;548;48.778;9.252;2023-02-07T15:21:48;13.20;;;12.40;;
1122;SDS011;548;48.778;9.252;2023-02-07T15:24:16;14.43;;;13.60;;
1122;SDS011;548;48.778;9.252;2023-02-07T15:26:52;13.90;;;13.10;;
1122;SDS011;548;48.778;9.252;2023-02-07T15:29:22;13.73;;;12.90;;
1122;SDS011;548;48.778;9.252;2023-02-07T15:31:54;13.20;;;12.40;;
1122;SDS011;548;48.778;9.252;2023-02-07T15:34:21;13.00;;;12.20;;
1122;SDS011;548;48.778;9.252;2023-02-07T15:36:55;12.80;;;11.90;;
1122;SDS011;548;48.778;9.252;2023-02-07T15:39:24;13.90;;;12.67;;
1122;SDS011;548;48.778;9.252;2023-02-07T15:41:55;12.50;;;11.80;;
1122;SDS011;548;48.778;9.252;2023-02-07T15:44:24;14.27;;;13.27;;
1122;SDS011;548;48.778;9.252;2023-02-07T15:46:52;12.93;;;12.10;;
1122;SDS011;548;48.778;9.252;2023-02-07T15:49:31;12.17;;;11.53;;
1122;SDS011;548;48.778;9.252;2023-02-07T15:52:02;12.80;;;11.70;;
1122;SDS011;548;48.778;9.252;2023-02-07T15:54:42;13.63;;;12.73;;
1122;SDS011;548;48.778;9.252;2023-02-07T15:57:12;13.30;;;12.30;;
1122;SDS011;548;48.778;9.252;2023-02-07T15:59:47;12.43;;;11.73;;
1122;SDS011;548;48.778;9.252;2023-02-07T16:02:18;12.73;;;11.83;;
1122;SDS011;548;48.778;9.252;2023-02-07T16:04:48;14.80;;;13.50;;
1122;SDS011;548;48.778;9.252;2023-02-07T16:07:15;13.53;;;12.53;;
1122;SDS011;548;48.778;9.252;2023-02-07T16:09:42;12.97;;;12.07;;
1122;SDS011;548;48.778;9.252;2023-02-07T16:12:31;10.33;;;9.77;;
1122;SDS011;548;48.778;9.252;2023-02-07T16:15:20;13.23;;;12.27;;
1122;SDS011;548;48.778;9.252;2023-02-07T16:17:49;13.67;;;12.73;;
1122;SDS011;548;48.778;9.252;2023-02-07T16:20:16;13.30;;;12.40;;
1122;SDS011;548;48.778;9.252;2023-02-07T16:22:43;14.00;;;12.57;;
1122;SDS011;548;48.778;9.252;2023-02-07T16:25:12;12.87;;;12.07;;
1122;SDS011;548;48.778;9.252;2023-02-07T16:27:44;13.50;;;12.50;;
1122;SDS011;548;48.778;9.252;2023-02-07T16:30:13;13.50;;;12.13;;
1122;SDS011;548;48.778;9.252;2023-02-07T16:32:41;13.90;;;12.80;;
1122;SDS011;548;48.778;9.252;2023-02-07T16:35:19;14.07;;;12.80;;
1122;SDS011;548;48.778;9.252;2023-02-07T16:37:46;13.67;;;12.60;;
1122;SDS011;548;48.778;9.252;2023-02-07T16:40:14;13.87;;;12.77;;
1122;SDS011;548;48.778;9.252;2023-02-07T16:42:41;12.50;;;11.50;;
1122;SDS011;548;48.778;9.252;2023-02-07T16:45:14;14.77;;;13.67;;
1122;SDS011;548;48.778;9.252;2023-02-07T16:47:43;13.77;;;12.77;;
1122;SDS011;548;48.778;9.252;2023-02-07T16:50:14;13.40;;;12.40;;
1122;SDS011;548;48.778;9.252;2023-02-07T16:52:42;13.83;;;12.83;;
1122;SDS011;548;48.778;9.252;2023-02-07T16:55:09;13.43;;;12.43;;
1122;SDS011;548;48.778;9.252;2023-02-07T16:57:36;14.37;;;13.00;;
1122;SDS011;548;48.778;9.252;2023-02-07T17:00:05;12.87;;;11.73;;
1122;SDS011;548;48.778;9.252;2023-02-07T17:02:33;13.90;;;12.80;;
1122;SDS011;548;48.778;9.252;2023-02-07T17:05:02;14.30;;;13.00;;
1122;SDS011;548;48.778;9.252;2023-02-07T17:07:29;13.33;;;12.40;;
1122;SDS011;548;48.778;9.252;2023-02-07T17:09:56;13.70;;;12.80;;
1122;SDS011;548;48.778;9.252;2023-02-07T17:12:23;13.07;;;11.97;;
1122;SDS011;548;48.778;9.252;2023-02-07T17:14:52;20.33;;;13.03;;
1122;SDS011;548;48.778;9.252;2023-02-07T17:17:20;13.97;;;12.77;;
1122;SDS011;548;48.778;9.252;2023-02-07T17:19:47;12.97;;;11.80;;
1122;SDS011;548;48.778;9.252;2023-02-07T17:22:15;12.70;;;11.80;;
1122;SDS011;548;48.778;9.252;2023-02-07T17:24:41;13.77;;;12.77;;
1122;SDS011;548;48.778;9.252;2023-02-07T17:27:08;13.77;;;12.63;;
1122;SDS011;548;48.778;9.252;2023-02-07T17:29:36;13.97;;;12.87;;
1122;SDS011;548;48.778;9.252;2023-02-07T17:32:05;13.50;;;12.20;;
1122;SDS011;548;48.778;9.252;2023-02-07T17:34:34;13.50;;;12.50;;
1122;SDS011;548;48.778;9.252;2023-02-07T17:37:01;14.10;;;12.80;;
1122;SDS011;548;48.778;9.252;2023-02-07T17:39:28;12.70;;;11.80;;
1122;SDS011;548;48.778;9.252;2023-02-07T17:41:55;14.37;;;13.17;;
1122;SDS011;548;48.778;9.252;2023-02-07T17:44:22;14.10;;;13.00;;
1122;SDS011;548;48.778;9.252;2023-02-07T17:46:51;12.50;;;11.63;;
1122;SDS011;548;48.778;9.252;2023-02-07T17:49:18;12.53;;;11.63;;
1122;SDS011;548;48.778;9.252;2023-02-07T17:51:46;13.87;;;12.77;;
1122;SDS011;548;48.778;9.252;2023-02-07T17:54:13;13.87;;;12.97;;
1122;SDS011;548;48.778;9.252;2023-02-07T17:56:40;14.83;;;13.60;;
1122;SDS011;548;48.778;9.252;2023-02-07T17:59:06;12.63;;;11.53;;
